sensor_id;sensor_type;location;lat;lon;timestamp;temperature;humidity
6206;DHT22;3136;48.788;9.772;2023-05-07T00:02:02;10.70;99.90
6206;DHT22;3136;48.788;9.772;2023-05-07T00:04:28;10.80;99.90
6206;DHT22;3136;48.788;9.772;2023-05-07T00:06:54;10.60;99.90
6206;DHT22;3136;48.788;9.772;2023-05-07T00:09:21;10.60;99.90
6206;DHT22;3136;48.788;9.772;2023-05-07T00:11:46;10.60;99.90
6206;DHT22;3136;48.788;9.772;2023-05-07T00:14:11;10.60;99.90
6206;DHT22;3136;48.788;9.772;2023-05-07T00:16:37;10.50;99.90
6206;DHT22;3136;48.788;9.772;2023-05-07T00:19:03;10.60;99.90
6206;DHT22;3136;48.788;9.772;2023-05-07T00:21:29;10.50;1.00
6206;DHT22;3136;48.788;9.772;2023-05-07T00:23:55;10.70;1.00
6206;DHT22;3136;48.788;9.772;2023-05-07T00:26:21;10.50;1.00
6206;DHT22;3136;48.788;9.772;2023-05-07T00:28:47;10.50;1.00
6206;DHT22;3136;48.788;9.772;2023-05-07T00:31:12;10.50;1.00
6206;DHT22;3136;48.788;9.772;2023-05-07T00:33:38;10.50;1.00
6206;DHT22;3136;48.788;9.772;2023-05-07T00:36:04;10.50;1.00
6206;DHT22;3136;48.788;9.772;2023-05-07T00:38:32;10.40;1.00
6206;DHT22;3136;48.788;9.772;2023-05-07T00:40:58;10.40;1.00
6206;DHT22;3136;48.788;9.772;2023-05-07T00:43:23;10.40;1.00
6206;DHT22;3136;48.788;9.772;2023-05-07T00:45:49;10.40;1.00
6206;DHT22;3136;48.788;9.772;2023-05-07T00:48:16;10.40;1.00
6206;DHT22;3136;48.788;9.772;2023-05-07T00:50:42;10.40;1.00
6206;DHT22;3136;48.788;9.772;2023-05-07T00:53:07;10.30;1.00
6206;DHT22;3136;48.788;9.772;2023-05-07T00:55:33;10.30;1.00
6206;DHT22;3136;48.788;9.772;2023-05-07T00:57:58;10.30;1.00
6206;DHT22;3136;48.788;9.772;2023-05-07T01:00:24;10.30;1.00
6206;DHT22;3136;48.788;9.772;2023-05-07T01:02:50;10.30;1.00
6206;DHT22;3136;48.788;9.772;2023-05-07T01:05:17;10.30;1.00
6206;DHT22;3136;48.788;9.772;2023-05-07T01:08:02;10.20;1.00
6206;DHT22;3136;48.788;9.772;2023-05-07T01:10:29;10.20;1.00
6206;DHT22;3136;48.788;9.772;2023-05-07T01:12:57;10.20;1.00
6206;DHT22;3136;48.788;9.772;2023-05-07T01:15:23;10.20;1.00
6206;DHT22;3136;48.788;9.772;2023-05-07T01:17:49;10.20;1.00
6206;DHT22;3136;48.788;9.772;2023-05-07T01:20:15;10.20;1.00
6206;DHT22;3136;48.788;9.772;2023-05-07T01:22:43;10.10;1.00
6206;DHT22;3136;48.788;9.772;2023-05-07T01:25:08;10.20;1.00
6206;DHT22;3136;48.788;9.772;2023-05-07T01:27:34;10.10;1.00
6206;DHT22;3136;48.788;9.772;2023-05-07T01:30:02;10.10;1.00
6206;DHT22;3136;48.788;9.772;2023-05-07T01:32:40;10.40;1.00
6206;DHT22;3136;48.788;9.772;2023-05-07T01:35:10;10.00;1.00
6206;DHT22;3136;48.788;9.772;2023-05-07T01:37:38;10.00;1.00
6206;DHT22;3136;48.788;9.772;2023-05-07T01:40:04;10.00;1.00
6206;DHT22;3136;48.788;9.772;2023-05-07T01:42:30;10.00;1.00
6206;DHT22;3136;48.788;9.772;2023-05-07T01:44:56;9.90;1.00
6206;DHT22;3136;48.788;9.772;2023-05-07T01:47:22;9.90;1.00
6206;DHT22;3136;48.788;9.772;2023-05-07T01:49:48;10.00;1.00
6206;DHT22;3136;48.788;9.772;2023-05-07T01:52:14;9.90;1.00
6206;DHT22;3136;48.788;9.772;2023-05-07T01:54:39;9.90;1.00
6206;DHT22;3136;48.788;9.772;2023-05-07T01:57:05;9.90;1.00
6206;DHT22;3136;48.788;9.772;2023-05-07T01:59:30;9.90;1.00
6206;DHT22;3136;48.788;9.772;2023-05-07T02:01:56;9.90;1.00
6206;DHT22;3136;48.788;9.772;2023-05-07T02:04:21;9.90;1.00
6206;DHT22;3136;48.788;9.772;2023-05-07T02:06:47;9.90;1.00
6206;DHT22;3136;48.788;9.772;2023-05-07T02:09:13;9.80;1.00
6206;DHT22;3136;48.788;9.772;2023-05-07T02:11:40;9.80;1.00
6206;DHT22;3136;48.788;9.772;2023-05-07T02:14:05;9.80;1.00
6206;DHT22;3136;48.788;9.772;2023-05-07T02:16:31;9.80;1.00
6206;DHT22;3136;48.788;9.772;2023-05-07T02:18:56;9.80;1.00
6206;DHT22;3136;48.788;9.772;2023-05-07T02:21:23;9.80;1.00
6206;DHT22;3136;48.788;9.772;2023-05-07T02:23:49;9.80;1.00
6206;DHT22;3136;48.788;9.772;2023-05-07T02:26:14;9.80;1.00
6206;DHT22;3136;48.788;9.772;2023-05-07T02:28:40;9.80;1.00
6206;DHT22;3136;48.788;9.772;2023-05-07T02:31:06;9.70;1.00
6206;DHT22;3136;48.788;9.772;2023-05-07T02:33:31;9.70;1.00
6206;DHT22;3136;48.788;9.772;2023-05-07T02:35:59;9.60;1.00
6206;DHT22;3136;48.788;9.772;2023-05-07T02:38:30;9.60;1.00
6206;DHT22;3136;48.788;9.772;2023-05-07T02:40:55;9.60;1.00
6206;DHT22;3136;48.788;9.772;2023-05-07T02:43:21;9.50;1.00
6206;DHT22;3136;48.788;9.772;2023-05-07T02:45:46;9.50;1.00
6206;DHT22;3136;48.788;9.772;2023-05-07T02:48:12;9.50;1.00
6206;DHT22;3136;48.788;9.772;2023-05-07T02:50:37;9.40;1.00
6206;DHT22;3136;48.788;9.772;2023-05-07T02:53:03;9.40;1.00
6206;DHT22;3136;48.788;9.772;2023-05-07T02:55:28;9.40;1.00
6206;DHT22;3136;48.788;9.772;2023-05-07T02:57:54;9.30;1.00
6206;DHT22;3136;48.788;9.772;2023-05-07T03:00:20;9.30;1.00
6206;DHT22;3136;48.788;9.772;2023-05-07T03:02:46;9.20;1.00
6206;DHT22;3136;48.788;9.772;2023-05-07T03:05:12;9.20;1.00
6206;DHT22;3136;48.788;9.772;2023-05-07T03:10:14;9.10;1.00
6206;DHT22;3136;48.788;9.772;2023-05-07T03:12:40;9.10;1.00
6206;DHT22;3136;48.788;9.772;2023-05-07T03:15:06;9.00;1.00
6206;DHT22;3136;48.788;9.772;2023-05-07T03:17:31;9.00;1.00
6206;DHT22;3136;48.788;9.772;2023-05-07T03:19:57;9.00;1.00
6206;DHT22;3136;48.788;9.772;2023-05-07T03:22:22;8.90;1.00
6206;DHT22;3136;48.788;9.772;2023-05-07T03:24:48;8.90;1.00
6206;DHT22;3136;48.788;9.772;2023-05-07T03:27:14;8.90;1.00
6206;DHT22;3136;48.788;9.772;2023-05-07T03:29:39;8.90;1.00
6206;DHT22;3136;48.788;9.772;2023-05-07T03:32:05;8.80;1.00
6206;DHT22;3136;48.788;9.772;2023-05-07T03:34:31;8.80;1.00
6206;DHT22;3136;48.788;9.772;2023-05-07T03:36:56;8.80;1.00
6206;DHT22;3136;48.788;9.772;2023-05-07T03:39:22;8.80;1.00
6206;DHT22;3136;48.788;9.772;2023-05-07T03:41:48;8.80;1.00
6206;DHT22;3136;48.788;9.772;2023-05-07T03:44:13;8.80;1.00
6206;DHT22;3136;48.788;9.772;2023-05-07T03:46:39;8.80;1.00
6206;DHT22;3136;48.788;9.772;2023-05-07T03:49:04;8.80;1.00
6206;DHT22;3136;48.788;9.772;2023-05-07T03:51:30;8.70;1.00
6206;DHT22;3136;48.788;9.772;2023-05-07T03:53:55;8.70;1.00
6206;DHT22;3136;48.788;9.772;2023-05-07T03:56:23;8.70;1.00
6206;DHT22;3136;48.788;9.772;2023-05-07T03:58:52;8.70;1.00
6206;DHT22;3136;48.788;9.772;2023-05-07T04:01:17;8.60;1.00
6206;DHT22;3136;48.788;9.772;2023-05-07T04:03:43;8.60;1.00
6206;DHT22;3136;48.788;9.772;2023-05-07T04:06:08;8.60;1.00
6206;DHT22;3136;48.788;9.772;2023-05-07T04:08:34;8.60;1.00
6206;DHT22;3136;48.788;9.772;2023-05-07T04:10:59;8.50;1.00
6206;DHT22;3136;48.788;9.772;2023-05-07T04:13:25;8.50;1.00
6206;DHT22;3136;48.788;9.772;2023-05-07T04:15:51;8.60;1.00
6206;DHT22;3136;48.788;9.772;2023-05-07T04:18:17;8.60;1.00
6206;DHT22;3136;48.788;9.772;2023-05-07T04:20:43;8.60;1.00
6206;DHT22;3136;48.788;9.772;2023-05-07T04:23:08;8.60;1.00
6206;DHT22;3136;48.788;9.772;2023-05-07T04:25:34;8.60;1.00
6206;DHT22;3136;48.788;9.772;2023-05-07T04:28:00;8.60;1.00
6206;DHT22;3136;48.788;9.772;2023-05-07T04:30:25;8.60;1.00
6206;DHT22;3136;48.788;9.772;2023-05-07T04:32:51;8.60;1.00
6206;DHT22;3136;48.788;9.772;2023-05-07T04:35:17;8.60;1.00
6206;DHT22;3136;48.788;9.772;2023-05-07T04:37:43;8.60;1.00
6206;DHT22;3136;48.788;9.772;2023-05-07T04:40:08;8.70;1.00
6206;DHT22;3136;48.788;9.772;2023-05-07T04:42:34;8.70;1.00
6206;DHT22;3136;48.788;9.772;2023-05-07T04:45:01;8.80;1.00
6206;DHT22;3136;48.788;9.772;2023-05-07T04:47:27;8.80;1.00
6206;DHT22;3136;48.788;9.772;2023-05-07T04:49:53;8.90;1.00
6206;DHT22;3136;48.788;9.772;2023-05-07T04:52:18;9.00;1.00
6206;DHT22;3136;48.788;9.772;2023-05-07T04:54:44;9.00;1.00
6206;DHT22;3136;48.788;9.772;2023-05-07T04:57:09;9.10;1.00
6206;DHT22;3136;48.788;9.772;2023-05-07T04:59:35;9.20;1.00
6206;DHT22;3136;48.788;9.772;2023-05-07T05:02:01;9.30;1.00
6206;DHT22;3136;48.788;9.772;2023-05-07T05:04:26;9.40;1.00
6206;DHT22;3136;48.788;9.772;2023-05-07T05:06:52;9.40;1.00
6206;DHT22;3136;48.788;9.772;2023-05-07T05:09:18;9.50;1.00
6206;DHT22;3136;48.788;9.772;2023-05-07T05:11:43;9.60;1.00
6206;DHT22;3136;48.788;9.772;2023-05-07T05:14:09;9.60;1.00
6206;DHT22;3136;48.788;9.772;2023-05-07T05:16:34;9.60;1.00
6206;DHT22;3136;48.788;9.772;2023-05-07T05:19:01;9.70;1.00
6206;DHT22;3136;48.788;9.772;2023-05-07T05:21:27;9.70;1.00
6206;DHT22;3136;48.788;9.772;2023-05-07T05:23:52;9.80;1.00
6206;DHT22;3136;48.788;9.772;2023-05-07T05:26:18;9.80;1.00
6206;DHT22;3136;48.788;9.772;2023-05-07T05:28:44;9.80;1.00
6206;DHT22;3136;48.788;9.772;2023-05-07T05:31:10;9.80;1.00
6206;DHT22;3136;48.788;9.772;2023-05-07T05:33:35;9.80;1.00
6206;DHT22;3136;48.788;9.772;2023-05-07T05:36:01;9.90;1.00
6206;DHT22;3136;48.788;9.772;2023-05-07T05:38:27;9.90;1.00
6206;DHT22;3136;48.788;9.772;2023-05-07T05:40:52;9.90;1.00
6206;DHT22;3136;48.788;9.772;2023-05-07T05:43:18;9.90;1.00
6206;DHT22;3136;48.788;9.772;2023-05-07T05:45:43;10.00;1.00
6206;DHT22;3136;48.788;9.772;2023-05-07T05:48:09;10.10;1.00
6206;DHT22;3136;48.788;9.772;2023-05-07T05:50:34;10.20;1.00
6206;DHT22;3136;48.788;9.772;2023-05-07T05:53:03;10.30;1.00
6206;DHT22;3136;48.788;9.772;2023-05-07T05:55:28;10.40;1.00
6206;DHT22;3136;48.788;9.772;2023-05-07T05:57:54;10.50;1.00
6206;DHT22;3136;48.788;9.772;2023-05-07T06:00:20;10.60;1.00
6206;DHT22;3136;48.788;9.772;2023-05-07T06:02:48;10.70;1.00
6206;DHT22;3136;48.788;9.772;2023-05-07T06:05:13;10.80;1.00
6206;DHT22;3136;48.788;9.772;2023-05-07T06:07:39;10.90;1.00
6206;DHT22;3136;48.788;9.772;2023-05-07T06:10:05;11.20;1.00
6206;DHT22;3136;48.788;9.772;2023-05-07T06:12:31;11.30;1.00
6206;DHT22;3136;48.788;9.772;2023-05-07T06:14:57;11.50;1.00
6206;DHT22;3136;48.788;9.772;2023-05-07T06:17:22;11.60;1.00
6206;DHT22;3136;48.788;9.772;2023-05-07T06:19:48;11.80;99.90
6206;DHT22;3136;48.788;9.772;2023-05-07T06:22:13;11.90;99.90
6206;DHT22;3136;48.788;9.772;2023-05-07T06:24:39;12.10;1.00
6206;DHT22;3136;48.788;9.772;2023-05-07T06:27:04;12.20;1.00
6206;DHT22;3136;48.788;9.772;2023-05-07T06:29:30;12.40;1.00
6206;DHT22;3136;48.788;9.772;2023-05-07T06:32:09;12.60;99.90
6206;DHT22;3136;48.788;9.772;2023-05-07T06:34:35;12.80;1.00
6206;DHT22;3136;48.788;9.772;2023-05-07T06:37:01;13.00;99.90
6206;DHT22;3136;48.788;9.772;2023-05-07T06:39:26;13.20;1.00
6206;DHT22;3136;48.788;9.772;2023-05-07T06:41:52;13.50;1.00
6206;DHT22;3136;48.788;9.772;2023-05-07T06:44:18;13.70;1.00
6206;DHT22;3136;48.788;9.772;2023-05-07T06:46:43;13.90;1.00
6206;DHT22;3136;48.788;9.772;2023-05-07T06:49:09;14.30;99.90
6206;DHT22;3136;48.788;9.772;2023-05-07T06:51:34;14.40;99.90
6206;DHT22;3136;48.788;9.772;2023-05-07T06:54:00;14.50;1.00
6206;DHT22;3136;48.788;9.772;2023-05-07T06:56:26;14.60;1.00
6206;DHT22;3136;48.788;9.772;2023-05-07T06:58:51;14.80;99.90
6206;DHT22;3136;48.788;9.772;2023-05-07T07:01:17;14.90;99.90
6206;DHT22;3136;48.788;9.772;2023-05-07T07:03:42;15.00;99.90
6206;DHT22;3136;48.788;9.772;2023-05-07T07:06:08;15.10;1.00
6206;DHT22;3136;48.788;9.772;2023-05-07T07:08:33;15.30;1.00
6206;DHT22;3136;48.788;9.772;2023-05-07T07:11:00;15.40;1.00
6206;DHT22;3136;48.788;9.772;2023-05-07T07:13:25;15.40;1.00
6206;DHT22;3136;48.788;9.772;2023-05-07T07:15:52;15.60;19.60
6206;DHT22;3136;48.788;9.772;2023-05-07T07:18:18;15.70;1.00
6206;DHT22;3136;48.788;9.772;2023-05-07T07:20:44;16.00;99.90
6206;DHT22;3136;48.788;9.772;2023-05-07T07:23:09;16.00;44.70
6206;DHT22;3136;48.788;9.772;2023-05-07T07:25:35;16.10;40.00
6206;DHT22;3136;48.788;9.772;2023-05-07T07:28:01;16.20;1.00
6206;DHT22;3136;48.788;9.772;2023-05-07T07:30:27;16.40;1.00
6206;DHT22;3136;48.788;9.772;2023-05-07T07:32:53;16.60;1.00
6206;DHT22;3136;48.788;9.772;2023-05-07T07:35:19;16.70;1.00
6206;DHT22;3136;48.788;9.772;2023-05-07T07:37:44;16.70;1.00
6206;DHT22;3136;48.788;9.772;2023-05-07T07:40:11;16.70;1.00
6206;DHT22;3136;48.788;9.772;2023-05-07T07:42:37;16.80;1.00
6206;DHT22;3136;48.788;9.772;2023-05-07T07:45:02;17.00;99.90
6206;DHT22;3136;48.788;9.772;2023-05-07T07:47:28;17.10;99.90
6206;DHT22;3136;48.788;9.772;2023-05-07T07:49:54;17.40;99.90
6206;DHT22;3136;48.788;9.772;2023-05-07T07:52:19;17.50;99.90
6206;DHT22;3136;48.788;9.772;2023-05-07T07:54:45;17.80;99.90
6206;DHT22;3136;48.788;9.772;2023-05-07T07:57:10;17.80;99.90
6206;DHT22;3136;48.788;9.772;2023-05-07T07:59:36;18.00;99.90
6206;DHT22;3136;48.788;9.772;2023-05-07T08:02:02;18.20;99.90
6206;DHT22;3136;48.788;9.772;2023-05-07T08:04:27;18.40;99.90
6206;DHT22;3136;48.788;9.772;2023-05-07T08:06:53;18.40;99.90
6206;DHT22;3136;48.788;9.772;2023-05-07T08:09:19;18.50;99.90
6206;DHT22;3136;48.788;9.772;2023-05-07T08:11:45;18.60;99.90
6206;DHT22;3136;48.788;9.772;2023-05-07T08:14:11;18.90;99.90
6206;DHT22;3136;48.788;9.772;2023-05-07T08:16:37;18.90;99.90
6206;DHT22;3136;48.788;9.772;2023-05-07T08:19:02;19.00;99.90
6206;DHT22;3136;48.788;9.772;2023-05-07T08:21:28;19.30;99.90
6206;DHT22;3136;48.788;9.772;2023-05-07T08:23:54;19.40;99.90
6206;DHT22;3136;48.788;9.772;2023-05-07T08:26:19;19.60;99.90
6206;DHT22;3136;48.788;9.772;2023-05-07T08:28:45;19.80;99.90
6206;DHT22;3136;48.788;9.772;2023-05-07T08:31:11;20.00;99.90
6206;DHT22;3136;48.788;9.772;2023-05-07T08:33:37;20.30;99.90
6206;DHT22;3136;48.788;9.772;2023-05-07T08:36:04;20.40;99.90
6206;DHT22;3136;48.788;9.772;2023-05-07T08:38:29;20.60;99.90
6206;DHT22;3136;48.788;9.772;2023-05-07T08:40:55;20.70;99.90
6206;DHT22;3136;48.788;9.772;2023-05-07T08:43:24;20.70;99.90
6206;DHT22;3136;48.788;9.772;2023-05-07T08:45:55;20.90;99.90
6206;DHT22;3136;48.788;9.772;2023-05-07T08:48:25;21.10;99.90
6206;DHT22;3136;48.788;9.772;2023-05-07T08:50:52;21.10;99.90
6206;DHT22;3136;48.788;9.772;2023-05-07T08:53:19;21.30;99.90
6206;DHT22;3136;48.788;9.772;2023-05-07T08:55:46;21.40;99.90
6206;DHT22;3136;48.788;9.772;2023-05-07T08:58:15;21.60;99.90
6206;DHT22;3136;48.788;9.772;2023-05-07T09:00:41;21.90;99.90
6206;DHT22;3136;48.788;9.772;2023-05-07T09:03:07;22.00;99.90
6206;DHT22;3136;48.788;9.772;2023-05-07T09:05:33;22.10;99.90
6206;DHT22;3136;48.788;9.772;2023-05-07T09:08:06;22.10;99.90
6206;DHT22;3136;48.788;9.772;2023-05-07T09:10:35;22.40;99.90
6206;DHT22;3136;48.788;9.772;2023-05-07T09:13:00;22.50;99.90
6206;DHT22;3136;48.788;9.772;2023-05-07T09:15:28;22.60;99.90
6206;DHT22;3136;48.788;9.772;2023-05-07T09:17:54;22.90;99.90
6206;DHT22;3136;48.788;9.772;2023-05-07T09:20:24;23.20;99.90
6206;DHT22;3136;48.788;9.772;2023-05-07T09:22:50;23.50;99.90
6206;DHT22;3136;48.788;9.772;2023-05-07T09:25:28;23.70;99.90
6206;DHT22;3136;48.788;9.772;2023-05-07T09:27:53;23.80;99.90
6206;DHT22;3136;48.788;9.772;2023-05-07T09:30:19;24.10;99.90
6206;DHT22;3136;48.788;9.772;2023-05-07T09:32:45;24.40;99.90
6206;DHT22;3136;48.788;9.772;2023-05-07T09:35:17;24.30;99.90
6206;DHT22;3136;48.788;9.772;2023-05-07T09:37:43;24.20;99.90
6206;DHT22;3136;48.788;9.772;2023-05-07T09:40:23;24.10;99.90
6206;DHT22;3136;48.788;9.772;2023-05-07T09:42:49;23.90;99.90
6206;DHT22;3136;48.788;9.772;2023-05-07T09:45:21;23.90;99.90
6206;DHT22;3136;48.788;9.772;2023-05-07T09:47:48;23.90;99.90
6206;DHT22;3136;48.788;9.772;2023-05-07T09:50:16;24.00;99.90
6206;DHT22;3136;48.788;9.772;2023-05-07T09:52:42;24.00;99.90
6206;DHT22;3136;48.788;9.772;2023-05-07T09:55:08;24.00;99.90
6206;DHT22;3136;48.788;9.772;2023-05-07T09:57:36;24.00;99.90
6206;DHT22;3136;48.788;9.772;2023-05-07T10:00:03;24.00;99.90
6206;DHT22;3136;48.788;9.772;2023-05-07T10:02:35;24.00;99.90
6206;DHT22;3136;48.788;9.772;2023-05-07T10:05:01;24.00;99.90
6206;DHT22;3136;48.788;9.772;2023-05-07T10:07:27;24.00;99.90
6206;DHT22;3136;48.788;9.772;2023-05-07T10:09:55;24.20;99.90
6206;DHT22;3136;48.788;9.772;2023-05-07T10:12:21;24.20;99.90
6206;DHT22;3136;48.788;9.772;2023-05-07T10:14:47;24.40;99.90
6206;DHT22;3136;48.788;9.772;2023-05-07T10:17:16;24.70;99.90
6206;DHT22;3136;48.788;9.772;2023-05-07T10:19:44;24.70;99.90
6206;DHT22;3136;48.788;9.772;2023-05-07T10:22:10;24.80;99.90
6206;DHT22;3136;48.788;9.772;2023-05-07T10:24:36;25.00;99.90
6206;DHT22;3136;48.788;9.772;2023-05-07T10:27:08;24.90;99.90
6206;DHT22;3136;48.788;9.772;2023-05-07T10:32:50;24.80;99.90
6206;DHT22;3136;48.788;9.772;2023-05-07T10:35:23;25.00;99.90
6206;DHT22;3136;48.788;9.772;2023-05-07T10:37:50;26.00;99.90
6206;DHT22;3136;48.788;9.772;2023-05-07T10:40:16;27.10;99.90
6206;DHT22;3136;48.788;9.772;2023-05-07T10:43:02;27.80;99.90
6206;DHT22;3136;48.788;9.772;2023-05-07T10:45:30;27.80;99.90
6206;DHT22;3136;48.788;9.772;2023-05-07T10:48:12;27.50;99.90
6206;DHT22;3136;48.788;9.772;2023-05-07T10:50:39;27.00;99.90
6206;DHT22;3136;48.788;9.772;2023-05-07T10:55:47;26.30;99.90
6206;DHT22;3136;48.788;9.772;2023-05-07T10:58:25;26.20;99.90
6206;DHT22;3136;48.788;9.772;2023-05-07T11:01:00;26.20;99.90
6206;DHT22;3136;48.788;9.772;2023-05-07T11:03:27;26.80;99.90
6206;DHT22;3136;48.788;9.772;2023-05-07T11:11:17;28.50;99.90
6206;DHT22;3136;48.788;9.772;2023-05-07T11:13:47;28.60;99.90
6206;DHT22;3136;48.788;9.772;2023-05-07T11:16:21;29.10;99.90
6206;DHT22;3136;48.788;9.772;2023-05-07T11:18:48;29.20;99.90
6206;DHT22;3136;48.788;9.772;2023-05-07T11:24:00;30.30;99.90
6206;DHT22;3136;48.788;9.772;2023-05-07T11:26:27;30.60;99.90
6206;DHT22;3136;48.788;9.772;2023-05-07T11:28:53;30.80;99.90
6206;DHT22;3136;48.788;9.772;2023-05-07T11:31:25;31.30;99.90
6206;DHT22;3136;48.788;9.772;2023-05-07T11:33:52;31.40;99.60
6206;DHT22;3136;48.788;9.772;2023-05-07T11:36:18;31.80;99.10
6206;DHT22;3136;48.788;9.772;2023-05-07T11:38:44;31.50;98.60
6206;DHT22;3136;48.788;9.772;2023-05-07T11:41:10;31.50;97.80
6206;DHT22;3136;48.788;9.772;2023-05-07T11:43:35;31.70;98.50
6206;DHT22;3136;48.788;9.772;2023-05-07T11:46:07;31.80;98.40
6206;DHT22;3136;48.788;9.772;2023-05-07T11:48:33;32.20;98.30
6206;DHT22;3136;48.788;9.772;2023-05-07T11:53:28;32.40;97.00
6206;DHT22;3136;48.788;9.772;2023-05-07T11:56:00;32.50;97.60
6206;DHT22;3136;48.788;9.772;2023-05-07T11:58:26;32.70;97.00
6206;DHT22;3136;48.788;9.772;2023-05-07T12:00:54;33.00;97.60
6206;DHT22;3136;48.788;9.772;2023-05-07T12:03:20;32.70;97.40
6206;DHT22;3136;48.788;9.772;2023-05-07T12:05:47;32.60;96.00
6206;DHT22;3136;48.788;9.772;2023-05-07T12:08:19;33.00;96.00
6206;DHT22;3136;48.788;9.772;2023-05-07T12:10:47;33.20;96.70
6206;DHT22;3136;48.788;9.772;2023-05-07T12:13:26;33.20;96.10
6206;DHT22;3136;48.788;9.772;2023-05-07T12:15:52;33.30;95.80
6206;DHT22;3136;48.788;9.772;2023-05-07T12:18:18;33.40;95.10
6206;DHT22;3136;48.788;9.772;2023-05-07T12:20:45;33.10;95.40
6206;DHT22;3136;48.788;9.772;2023-05-07T12:23:12;32.40;93.60
6206;DHT22;3136;48.788;9.772;2023-05-07T12:25:39;31.90;93.30
6206;DHT22;3136;48.788;9.772;2023-05-07T12:28:07;30.70;91.70
6206;DHT22;3136;48.788;9.772;2023-05-07T12:30:37;29.30;91.20
6206;DHT22;3136;48.788;9.772;2023-05-07T12:33:03;28.40;91.90
6206;DHT22;3136;48.788;9.772;2023-05-07T12:35:29;27.90;91.70
6206;DHT22;3136;48.788;9.772;2023-05-07T12:37:59;28.20;92.70
6206;DHT22;3136;48.788;9.772;2023-05-07T12:40:44;28.50;92.10
6206;DHT22;3136;48.788;9.772;2023-05-07T12:43:20;28.50;91.80
6206;DHT22;3136;48.788;9.772;2023-05-07T12:45:47;28.40;93.30
6206;DHT22;3136;48.788;9.772;2023-05-07T12:48:13;28.20;91.90
6206;DHT22;3136;48.788;9.772;2023-05-07T12:50:39;28.00;92.20
6206;DHT22;3136;48.788;9.772;2023-05-07T12:53:05;27.90;91.70
6206;DHT22;3136;48.788;9.772;2023-05-07T12:55:32;27.80;91.00
6206;DHT22;3136;48.788;9.772;2023-05-07T12:58:00;27.20;92.00
6206;DHT22;3136;48.788;9.772;2023-05-07T13:00:36;26.60;91.60
6206;DHT22;3136;48.788;9.772;2023-05-07T13:03:02;26.20;96.40
6206;DHT22;3136;48.788;9.772;2023-05-07T13:05:27;25.90;91.30
6206;DHT22;3136;48.788;9.772;2023-05-07T13:07:54;25.50;92.30
6206;DHT22;3136;48.788;9.772;2023-05-07T13:10:21;25.50;92.20
6206;DHT22;3136;48.788;9.772;2023-05-07T13:12:46;25.20;91.80
6206;DHT22;3136;48.788;9.772;2023-05-07T13:15:12;24.90;92.50
6206;DHT22;3136;48.788;9.772;2023-05-07T13:17:37;24.80;91.90
6206;DHT22;3136;48.788;9.772;2023-05-07T13:20:03;24.50;91.90
6206;DHT22;3136;48.788;9.772;2023-05-07T13:22:29;24.20;96.90
6206;DHT22;3136;48.788;9.772;2023-05-07T13:24:54;24.00;92.80
6206;DHT22;3136;48.788;9.772;2023-05-07T13:27:20;23.90;92.30
6206;DHT22;3136;48.788;9.772;2023-05-07T13:29:45;23.70;93.00
6206;DHT22;3136;48.788;9.772;2023-05-07T13:32:11;23.50;92.10
6206;DHT22;3136;48.788;9.772;2023-05-07T13:34:36;23.20;92.90
6206;DHT22;3136;48.788;9.772;2023-05-07T13:37:02;23.10;93.50
6206;DHT22;3136;48.788;9.772;2023-05-07T13:39:28;23.00;94.00
6206;DHT22;3136;48.788;9.772;2023-05-07T13:41:53;22.90;93.60
6206;DHT22;3136;48.788;9.772;2023-05-07T13:44:19;22.80;94.30
6206;DHT22;3136;48.788;9.772;2023-05-07T13:46:44;22.70;93.90
6206;DHT22;3136;48.788;9.772;2023-05-07T13:49:10;22.60;95.20
6206;DHT22;3136;48.788;9.772;2023-05-07T13:51:38;22.60;95.00
6206;DHT22;3136;48.788;9.772;2023-05-07T13:54:04;22.50;95.40
6206;DHT22;3136;48.788;9.772;2023-05-07T13:56:29;22.40;95.40
6206;DHT22;3136;48.788;9.772;2023-05-07T13:58:57;22.30;95.80
6206;DHT22;3136;48.788;9.772;2023-05-07T14:01:23;22.30;97.40
6206;DHT22;3136;48.788;9.772;2023-05-07T14:03:49;22.20;97.50
6206;DHT22;3136;48.788;9.772;2023-05-07T14:06:14;22.10;99.80
6206;DHT22;3136;48.788;9.772;2023-05-07T14:08:40;22.10;99.90
6206;DHT22;3136;48.788;9.772;2023-05-07T14:11:06;22.00;99.90
6206;DHT22;3136;48.788;9.772;2023-05-07T14:13:31;22.00;99.90
6206;DHT22;3136;48.788;9.772;2023-05-07T14:15:57;22.00;99.90
6206;DHT22;3136;48.788;9.772;2023-05-07T14:18:23;21.90;99.90
6206;DHT22;3136;48.788;9.772;2023-05-07T14:20:48;21.90;99.90
6206;DHT22;3136;48.788;9.772;2023-05-07T14:23:14;21.90;99.90
6206;DHT22;3136;48.788;9.772;2023-05-07T14:25:40;21.80;99.90
6206;DHT22;3136;48.788;9.772;2023-05-07T14:28:08;21.80;99.90
6206;DHT22;3136;48.788;9.772;2023-05-07T14:30:34;21.80;99.90
6206;DHT22;3136;48.788;9.772;2023-05-07T14:33:00;21.70;99.90
6206;DHT22;3136;48.788;9.772;2023-05-07T14:35:25;21.50;99.90
6206;DHT22;3136;48.788;9.772;2023-05-07T14:37:51;21.50;99.90
6206;DHT22;3136;48.788;9.772;2023-05-07T14:40:17;21.30;99.90
6206;DHT22;3136;48.788;9.772;2023-05-07T14:42:42;21.20;99.90
6206;DHT22;3136;48.788;9.772;2023-05-07T14:45:08;21.10;99.90
6206;DHT22;3136;48.788;9.772;2023-05-07T14:47:34;20.80;99.90
6206;DHT22;3136;48.788;9.772;2023-05-07T14:50:00;20.70;99.90
6206;DHT22;3136;48.788;9.772;2023-05-07T14:52:26;20.60;99.90
6206;DHT22;3136;48.788;9.772;2023-05-07T14:54:52;20.50;99.90
6206;DHT22;3136;48.788;9.772;2023-05-07T14:57:17;20.40;99.90
6206;DHT22;3136;48.788;9.772;2023-05-07T14:59:44;20.40;99.90
6206;DHT22;3136;48.788;9.772;2023-05-07T15:02:11;20.40;99.90
6206;DHT22;3136;48.788;9.772;2023-05-07T15:04:37;20.30;99.90
6206;DHT22;3136;48.788;9.772;2023-05-07T15:07:03;20.20;99.90
6206;DHT22;3136;48.788;9.772;2023-05-07T15:09:29;20.00;99.90
6206;DHT22;3136;48.788;9.772;2023-05-07T15:11:55;19.90;99.90
6206;DHT22;3136;48.788;9.772;2023-05-07T15:14:20;19.70;99.90
6206;DHT22;3136;48.788;9.772;2023-05-07T15:16:50;19.50;99.90
6206;DHT22;3136;48.788;9.772;2023-05-07T15:19:15;19.40;99.90
6206;DHT22;3136;48.788;9.772;2023-05-07T15:21:42;19.40;99.90
6206;DHT22;3136;48.788;9.772;2023-05-07T15:24:08;19.30;99.90
6206;DHT22;3136;48.788;9.772;2023-05-07T15:26:34;19.10;99.90
6206;DHT22;3136;48.788;9.772;2023-05-07T15:28:59;19.00;99.90
6206;DHT22;3136;48.788;9.772;2023-05-07T15:31:25;18.90;99.90
6206;DHT22;3136;48.788;9.772;2023-05-07T15:33:51;18.80;99.90
6206;DHT22;3136;48.788;9.772;2023-05-07T15:36:17;18.60;99.90
6206;DHT22;3136;48.788;9.772;2023-05-07T15:38:43;18.50;99.90
6206;DHT22;3136;48.788;9.772;2023-05-07T15:41:09;18.30;99.90
6206;DHT22;3136;48.788;9.772;2023-05-07T15:43:44;18.10;99.90
6206;DHT22;3136;48.788;9.772;2023-05-07T15:46:10;18.20;99.90
6206;DHT22;3136;48.788;9.772;2023-05-07T15:48:36;18.10;99.90
6206;DHT22;3136;48.788;9.772;2023-05-07T15:51:02;17.90;99.90
6206;DHT22;3136;48.788;9.772;2023-05-07T15:53:27;17.80;99.90
6206;DHT22;3136;48.788;9.772;2023-05-07T15:55:53;17.80;99.90
6206;DHT22;3136;48.788;9.772;2023-05-07T15:58:19;17.80;99.90
6206;DHT22;3136;48.788;9.772;2023-05-07T16:00:45;17.60;99.90
6206;DHT22;3136;48.788;9.772;2023-05-07T16:03:11;17.60;99.90
6206;DHT22;3136;48.788;9.772;2023-05-07T16:05:36;17.60;99.90
6206;DHT22;3136;48.788;9.772;2023-05-07T16:08:02;17.50;99.90
6206;DHT22;3136;48.788;9.772;2023-05-07T16:10:29;17.40;99.90
6206;DHT22;3136;48.788;9.772;2023-05-07T16:12:54;17.20;99.90
6206;DHT22;3136;48.788;9.772;2023-05-07T16:15:20;17.10;99.90
6206;DHT22;3136;48.788;9.772;2023-05-07T16:17:47;17.00;1.00
6206;DHT22;3136;48.788;9.772;2023-05-07T16:20:13;16.90;1.00
6206;DHT22;3136;48.788;9.772;2023-05-07T16:22:40;16.70;99.90
6206;DHT22;3136;48.788;9.772;2023-05-07T16:25:07;16.60;1.00
6206;DHT22;3136;48.788;9.772;2023-05-07T16:27:32;16.40;1.00